createdAt,value
2022-11-15T00:01:19.368Z,12.10
2022-11-15T00:03:52.614Z,12.13
2022-11-15T00:06:20.732Z,11.17
2022-11-15T00:08:48.726Z,12.20
2022-11-15T00:11:16.706Z,11.80
2022-11-15T00:13:44.725Z,11.73
2022-11-15T00:16:12.739Z,11.87
2022-11-15T00:18:42.431Z,10.30
2022-11-15T00:21:15.739Z,11.33
2022-11-15T00:23:43.892Z,11.70
2022-11-15T00:26:14.398Z,11.80
2022-11-15T00:28:42.925Z,11.43
2022-11-15T00:31:13.701Z,12.17
2022-11-15T00:33:41.939Z,11.53
2022-11-15T00:36:13.014Z,10.67
2022-11-15T00:38:42.945Z,11.87
2022-11-15T00:41:11.180Z,11.67
2022-11-15T00:43:40.825Z,10.97
2022-11-15T00:46:10.452Z,11.03
2022-11-15T00:48:38.648Z,11.17
2022-11-15T00:51:06.926Z,11.90
2022-11-15T00:53:36.458Z,11.43
2022-11-15T00:56:04.707Z,11.97
2022-11-15T00:58:32.680Z,11.93
2022-11-15T01:01:08.244Z,12.13
2022-11-15T01:03:36.633Z,12.20
2022-11-15T01:06:05.344Z,12.10
2022-11-15T01:08:33.456Z,11.70
2022-11-15T01:11:04.781Z,11.77
2022-11-15T01:13:33.909Z,12.57
2022-11-15T01:16:07.472Z,12.23
2022-11-15T01:18:35.440Z,11.90
2022-11-15T01:21:07.803Z,13.07
2022-11-15T01:23:35.934Z,11.27
2022-11-15T01:26:07.878Z,12.83
2022-11-15T01:28:37.868Z,12.13
2022-11-15T01:31:08.349Z,11.93
2022-11-15T01:33:37.298Z,11.70
2022-11-15T01:36:08.038Z,11.67
2022-11-15T01:38:36.049Z,11.10
2022-11-15T01:41:06.651Z,10.97
2022-11-15T01:43:36.965Z,11.73
2022-11-15T01:46:14.997Z,11.37
2022-11-15T01:48:43.022Z,11.63
2022-11-15T01:51:15.326Z,10.67
2022-11-15T01:53:46.534Z,11.00
2022-11-15T01:56:18.597Z,10.43
2022-11-15T01:58:47.623Z,10.77
2022-11-15T02:01:16.369Z,9.20
2022-11-15T02:03:51.410Z,11.03
2022-11-15T02:06:20.025Z,9.70
2022-11-15T02:08:48.080Z,8.57
2022-11-15T02:11:17.509Z,9.13
2022-11-15T02:13:46.055Z,8.50
2022-11-15T02:16:27.123Z,8.37
2022-11-15T02:19:01.850Z,8.73
2022-11-15T02:21:36.028Z,8.00
2022-11-15T02:24:40.799Z,7.80
2022-11-15T02:27:40.153Z,8.00
2022-11-15T02:30:29.928Z,7.50
2022-11-15T02:33:03.093Z,8.90
2022-11-15T02:35:43.947Z,9.07
2022-11-15T02:38:19.332Z,9.10
2022-11-15T02:40:54.215Z,9.57
2022-11-15T02:43:46.235Z,8.70
2022-11-15T02:46:21.120Z,9.63
2022-11-15T02:48:50.041Z,10.97
2022-11-15T02:51:19.704Z,9.93
2022-11-15T02:53:47.673Z,9.87
2022-11-15T02:56:15.639Z,9.80
2022-11-15T02:59:16.152Z,10.90
2022-11-15T03:01:58.092Z,10.67
2022-11-15T03:04:34.935Z,10.43
2022-11-15T03:07:07.639Z,10.13
2022-11-15T03:09:37.596Z,11.00
2022-11-15T03:12:13.778Z,9.70
2022-11-15T03:14:51.607Z,10.33
2022-11-15T03:17:25.939Z,9.47
2022-11-15T03:19:57.262Z,10.23
2022-11-15T03:22:28.163Z,8.53
2022-11-15T03:24:59.848Z,8.40
2022-11-15T03:27:32.879Z,8.37
2022-11-15T03:30:06.060Z,8.53
2022-11-15T03:32:40.807Z,8.57
2022-11-15T03:35:12.487Z,7.80
2022-11-15T03:37:46.136Z,8.80
2022-11-15T03:40:14.776Z,8.83
2022-11-15T03:42:48.971Z,8.80
2022-11-15T03:45:21.441Z,8.03
2022-11-15T03:47:55.051Z,7.87
2022-11-15T03:50:25.050Z,8.67
2022-11-15T03:52:53.317Z,8.63
2022-11-15T03:55:23.267Z,6.93
2022-11-15T03:57:55.398Z,7.47
2022-11-15T04:00:23.564Z,6.60
2022-11-15T04:02:52.954Z,7.23
2022-11-15T04:05:21.005Z,7.40
2022-11-15T04:07:49.089Z,6.97
2022-11-15T04:10:17.960Z,7.30
2022-11-15T04:12:48.479Z,7.33
2022-11-15T04:15:18.449Z,6.67
2022-11-15T04:17:49.080Z,7.73
2022-11-15T04:20:37.982Z,7.03
2022-11-15T04:23:26.346Z,7.13
2022-11-15T04:25:56.694Z,6.70
2022-11-15T04:28:24.917Z,7.10
2022-11-15T04:30:52.887Z,6.80
2022-11-15T04:33:20.958Z,7.33
2022-11-15T04:36:04.589Z,7.00
2022-11-15T04:38:32.887Z,7.27
2022-11-15T04:41:01.022Z,6.93
2022-11-15T04:43:29.342Z,6.87
2022-11-15T04:45:57.545Z,6.57
2022-11-15T04:48:25.510Z,6.63
2022-11-15T04:50:54.864Z,6.90
2022-11-15T04:53:22.853Z,6.07
2022-11-15T04:55:50.946Z,6.60
2022-11-15T04:58:18.954Z,5.93
2022-11-15T05:00:47.018Z,6.50
2022-11-15T05:03:32.483Z,6.23
2022-11-15T05:06:02.149Z,6.50
2022-11-15T05:08:30.132Z,7.03
2022-11-15T05:10:58.283Z,6.50
2022-11-15T05:13:26.354Z,7.40
2022-11-15T05:15:54.312Z,6.63
2022-11-15T05:18:23.790Z,7.27
2022-11-15T05:20:52.052Z,6.87
2022-11-15T05:23:21.442Z,7.00
2022-11-15T05:25:49.392Z,7.10
2022-11-15T05:28:17.472Z,6.70
2022-11-15T05:30:45.415Z,7.23
2022-11-15T05:33:13.541Z,6.67
2022-11-15T05:35:46.461Z,6.37
2022-11-15T05:38:14.427Z,7.53
2022-11-15T05:40:43.798Z,7.27
2022-11-15T05:43:12.489Z,8.30
2022-11-15T05:45:40.505Z,7.93
2022-11-15T05:48:10.809Z,8.00
2022-11-15T05:50:43.554Z,9.20
2022-11-15T05:53:13.214Z,9.93
2022-11-15T05:55:43.056Z,9.47
2022-11-15T05:58:11.354Z,8.93
2022-11-15T06:00:39.328Z,9.87
2022-11-15T06:03:07.328Z,9.60
2022-11-15T06:05:35.301Z,9.50
2022-11-15T06:08:03.261Z,9.73
2022-11-15T06:10:31.230Z,9.33
2022-11-15T06:13:01.805Z,12.50
2022-11-15T06:15:29.938Z,12.73
2022-11-15T06:17:59.432Z,11.17
2022-11-15T06:20:27.552Z,10.90
2022-11-15T06:22:59.480Z,11.37
2022-11-15T06:25:27.514Z,12.17
2022-11-15T06:27:56.405Z,12.47
2022-11-15T06:30:27.198Z,11.73
2022-11-15T06:33:02.733Z,12.20
2022-11-15T06:35:31.460Z,10.90
2022-11-15T06:38:05.658Z,12.63
2022-11-15T06:40:36.248Z,11.30
2022-11-15T06:43:05.071Z,11.57
2022-11-15T06:45:34.992Z,11.33
2022-11-15T06:48:02.975Z,12.37
2022-11-15T06:50:30.988Z,11.93
2022-11-15T06:53:04.075Z,11.20
2022-11-15T06:55:32.164Z,11.70
2022-11-15T06:58:00.178Z,11.87
2022-11-15T07:00:28.187Z,12.40
2022-11-15T07:03:01.250Z,11.33
2022-11-15T07:05:29.462Z,11.60
2022-11-15T07:07:58.626Z,12.27
2022-11-15T07:10:27.510Z,11.90
2022-11-15T07:12:56.438Z,12.83
2022-11-15T07:15:26.238Z,11.93
2022-11-15T07:17:54.484Z,13.33
2022-11-15T07:20:23.813Z,13.47
2022-11-15T07:22:51.778Z,12.83
2022-11-15T07:25:19.726Z,13.10
2022-11-15T07:27:56.576Z,13.23
2022-11-15T07:30:24.978Z,14.47
2022-11-15T07:32:55.244Z,13.67
2022-11-15T07:35:24.892Z,13.57
2022-11-15T07:37:57.959Z,13.43
2022-11-15T07:40:26.359Z,14.57
2022-11-15T07:42:58.042Z,13.37
2022-11-15T07:45:27.800Z,13.77
2022-11-15T07:47:56.884Z,14.10
2022-11-15T07:50:26.842Z,15.20
2022-11-15T07:52:58.268Z,15.03
2022-11-15T07:55:28.012Z,15.37
2022-11-15T07:58:02.697Z,16.27
2022-11-15T08:00:30.884Z,15.20
2022-11-15T08:03:21.270Z,15.57
2022-11-15T08:05:53.940Z,17.33
2022-11-15T08:08:22.064Z,16.70
2022-11-15T08:10:50.005Z,17.60
2022-11-15T08:13:18.499Z,17.03
2022-11-15T08:15:46.705Z,19.50
2022-11-15T08:18:17.413Z,18.50
2022-11-15T08:20:45.770Z,17.90
2022-11-15T08:23:15.093Z,18.03
2022-11-15T08:25:43.060Z,17.60
2022-11-15T08:28:12.908Z,20.37
2022-11-15T08:30:42.985Z,21.37
2022-11-15T08:33:13.888Z,20.80
2022-11-15T08:35:42.298Z,20.87
2022-11-15T08:38:10.416Z,21.40
2022-11-15T08:40:40.155Z,22.50
2022-11-15T08:43:08.351Z,22.20
2022-11-15T08:45:37.419Z,23.60
2022-11-15T08:48:05.705Z,24.77
2022-11-15T08:50:33.774Z,23.87
2022-11-15T08:53:07.637Z,22.77
2022-11-15T08:55:40.189Z,23.77
2022-11-15T08:58:08.428Z,24.60
2022-11-15T09:00:36.392Z,23.80
2022-11-15T09:03:06.818Z,23.83
2022-11-15T09:05:37.612Z,24.83
2022-11-15T09:08:24.985Z,24.97
2022-11-15T09:10:55.476Z,25.10
2022-11-15T09:13:23.846Z,24.10
2022-11-15T09:15:51.904Z,25.33
2022-11-15T09:18:22.439Z,24.87
2022-11-15T09:20:50.464Z,24.00
2022-11-15T09:23:18.517Z,24.73
2022-11-15T09:25:46.568Z,23.33
2022-11-15T09:28:16.082Z,23.30
2022-11-15T09:30:44.094Z,22.70
2022-11-15T09:33:13.597Z,22.07
2022-11-15T09:35:42.105Z,22.37
2022-11-15T09:38:10.162Z,19.33
2022-11-15T09:40:39.729Z,22.07
2022-11-15T09:43:27.790Z,20.90
2022-11-15T09:46:06.454Z,19.93
2022-11-15T09:48:50.071Z,20.27
2022-11-15T09:51:27.387Z,19.07
2022-11-15T09:56:52.041Z,19.33
2022-11-15T09:59:30.640Z,18.37
2022-11-15T10:02:05.514Z,18.70
2022-11-15T10:04:34.055Z,18.67
2022-11-15T10:07:08.498Z,19.03
2022-11-15T10:09:44.324Z,18.27
2022-11-15T10:12:14.713Z,18.13
2022-11-15T10:14:45.384Z,18.63
2022-11-15T10:17:56.016Z,16.47
2022-11-15T10:20:27.496Z,16.17
2022-11-15T10:22:58.080Z,16.37
2022-11-15T10:25:27.544Z,16.03
2022-11-15T10:27:59.152Z,16.37
2022-11-15T10:30:35.836Z,15.50
2022-11-15T10:33:18.473Z,14.47
2022-11-15T10:35:46.526Z,14.33
2022-11-15T10:38:14.749Z,14.23
2022-11-15T10:40:44.783Z,13.47
2022-11-15T10:43:18.860Z,12.50
2022-11-15T10:45:50.865Z,13.63
2022-11-15T10:48:28.435Z,13.77
2022-11-15T10:50:57.851Z,13.13
2022-11-15T10:53:34.000Z,13.63
2022-11-15T10:56:05.506Z,13.70
2022-11-15T10:58:37.512Z,14.00
2022-11-15T11:01:14.780Z,12.13
2022-11-15T11:03:45.112Z,14.13
2022-11-15T11:06:15.793Z,12.37
2022-11-15T11:08:56.723Z,11.77
2022-11-15T11:11:24.865Z,10.87
2022-11-15T11:13:52.935Z,12.00
2022-11-15T11:16:39.312Z,10.40
2022-11-15T11:19:20.954Z,12.17
2022-11-15T11:21:57.784Z,10.43
2022-11-15T11:24:35.097Z,12.07
2022-11-15T11:27:20.781Z,9.40
2022-11-15T11:30:04.070Z,9.40
2022-11-15T11:32:45.788Z,11.13
2022-11-15T11:35:17.948Z,9.23
2022-11-15T11:37:52.095Z,9.43
2022-11-15T11:40:30.149Z,9.27
2022-11-15T11:43:06.574Z,11.80
2022-11-15T11:46:04.060Z,7.07
2022-11-15T11:48:43.307Z,6.43
2022-11-15T11:51:18.856Z,6.50
2022-11-15T11:53:54.583Z,6.63
2022-11-15T11:56:28.617Z,6.30
2022-11-15T11:59:02.373Z,6.00
2022-11-15T12:01:36.841Z,4.90
2022-11-15T12:04:13.619Z,5.00
2022-11-15T12:06:48.537Z,4.80
2022-11-15T12:09:21.970Z,4.87
2022-11-15T12:11:56.978Z,5.63
2022-11-15T12:14:33.720Z,5.17
2022-11-15T12:17:02.106Z,4.97
2022-11-15T12:19:32.705Z,4.50
2022-11-15T12:22:06.255Z,5.47
2022-11-15T12:24:40.113Z,5.07
2022-11-15T12:27:16.214Z,8.30
2022-11-15T12:29:49.519Z,5.73
2022-11-15T12:32:26.662Z,4.50
2022-11-15T12:34:56.880Z,5.80
2022-11-15T12:37:57.192Z,5.53
2022-11-15T12:41:09.334Z,4.63
2022-11-15T12:43:42.173Z,4.27
2022-11-15T12:46:15.840Z,5.40
2022-11-15T12:49:02.075Z,5.73
2022-11-15T12:52:10.378Z,4.90
2022-11-15T12:54:58.058Z,4.60
2022-11-15T12:57:43.391Z,5.40
2022-11-15T13:00:40.165Z,6.20
2022-11-15T13:03:35.680Z,6.53
2022-11-15T13:06:39.696Z,5.57
2022-11-15T13:09:57.276Z,5.93
2022-11-15T13:12:52.001Z,6.23
2022-11-15T13:15:53.853Z,5.57
2022-11-15T13:18:35.875Z,6.40
2022-11-15T13:21:28.208Z,6.23
2022-11-15T13:23:57.417Z,5.53
2022-11-15T13:26:26.906Z,6.33
2022-11-15T13:28:56.880Z,14.60
2022-11-15T13:31:31.749Z,12.00
2022-11-15T13:34:02.615Z,10.17
2022-11-15T13:36:33.988Z,8.40
2022-11-15T13:39:04.287Z,7.63
2022-11-15T13:41:36.040Z,7.80
2022-11-15T13:44:06.135Z,6.43
2022-11-15T13:46:35.743Z,7.30
2022-11-15T13:49:05.507Z,7.77
2022-11-15T13:51:40.416Z,7.13
2022-11-15T13:54:21.213Z,7.13
2022-11-15T13:56:56.673Z,7.47
2022-11-15T13:59:28.407Z,8.70
2022-11-15T14:01:58.517Z,8.03
2022-11-15T14:04:30.646Z,7.50
2022-11-15T14:07:00.738Z,8.23
2022-11-15T14:09:35.563Z,7.63
2022-11-15T14:12:25.320Z,7.50
2022-11-15T14:14:53.956Z,7.30
2022-11-15T14:17:34.629Z,7.07
2022-11-15T14:20:02.986Z,7.17
2022-11-15T14:22:32.010Z,7.23
2022-11-15T14:25:17.462Z,6.63
2022-11-15T14:28:07.530Z,7.57
2022-11-15T14:30:35.549Z,6.43
2022-11-15T14:33:03.685Z,6.90
2022-11-15T14:35:31.718Z,6.43
2022-11-15T14:38:01.380Z,6.53
2022-11-15T14:40:29.419Z,6.50
2022-11-15T14:42:58.754Z,6.30
2022-11-15T14:45:29.851Z,6.30
2022-11-15T14:47:57.854Z,6.90
2022-11-15T14:50:25.860Z,7.23
2022-11-15T14:52:53.880Z,7.37
2022-11-15T14:55:24.451Z,7.53
2022-11-15T14:57:53.421Z,7.57
2022-11-15T15:00:23.381Z,7.77
2022-11-15T15:02:54.130Z,7.83
2022-11-15T15:05:25.195Z,8.53
2022-11-15T15:07:54.208Z,9.70
2022-11-15T15:13:18.754Z,7.97
2022-11-15T15:15:48.984Z,7.27
2022-11-15T15:18:17.013Z,7.37
2022-11-15T15:20:47.740Z,7.10
2022-11-15T15:23:18.332Z,6.87
2022-11-15T15:25:48.761Z,7.80
2022-11-15T15:28:17.047Z,7.43
2022-11-15T15:30:45.059Z,7.87
2022-11-15T15:33:14.579Z,6.97
2022-11-15T15:35:42.664Z,6.93
2022-11-15T15:38:13.138Z,7.37
2022-11-15T15:40:41.490Z,7.73
2022-11-15T15:43:10.215Z,6.33
2022-11-15T15:45:40.241Z,6.60
2022-11-15T15:48:11.178Z,7.27
2022-11-15T15:50:41.461Z,7.00
2022-11-15T15:53:11.298Z,5.93
2022-11-15T15:55:39.752Z,6.33
2022-11-15T15:58:09.330Z,5.90
2022-11-15T16:00:38.318Z,6.17
2022-11-15T16:03:06.320Z,6.03
2022-11-15T16:05:34.323Z,5.90
2022-11-15T16:08:03.683Z,5.47
2022-11-15T16:10:37.674Z,6.40
2022-11-15T16:13:06.028Z,5.77
2022-11-15T16:15:34.557Z,5.73
2022-11-15T16:18:03.510Z,5.77
2022-11-15T16:20:38.256Z,5.57
2022-11-15T16:23:10.127Z,6.50
2022-11-15T16:25:43.710Z,7.20
2022-11-15T16:28:23.670Z,8.03
2022-11-15T16:31:01.101Z,10.87
2022-11-15T16:33:29.215Z,9.20
2022-11-15T16:35:57.294Z,8.07
2022-11-15T16:38:26.830Z,8.00
2022-11-15T16:40:54.918Z,6.67
2022-11-15T16:43:22.946Z,5.87
2022-11-15T16:45:51.783Z,5.83
2022-11-15T16:48:25.250Z,6.37
2022-11-15T16:50:56.725Z,6.70
2022-11-15T16:53:26.489Z,6.23
2022-11-15T16:55:54.733Z,6.90
2022-11-15T16:58:23.069Z,6.77
2022-11-15T17:00:54.116Z,6.63
2022-11-15T17:03:22.428Z,6.47
2022-11-15T17:05:50.919Z,7.00
2022-11-15T17:08:20.873Z,6.70
2022-11-15T17:10:50.429Z,7.60
2022-11-15T17:13:18.764Z,5.70
2022-11-15T17:15:46.815Z,6.37
2022-11-15T17:18:15.603Z,6.73
2022-11-15T17:20:43.825Z,6.20
2022-11-15T17:23:15.436Z,7.50
2022-11-15T17:25:43.578Z,6.17
2022-11-15T17:28:13.082Z,7.27
2022-11-15T17:30:44.148Z,7.00
2022-11-15T17:33:12.186Z,6.43
2022-11-15T17:35:40.196Z,6.20
2022-11-15T17:38:08.196Z,6.33
2022-11-15T17:40:36.133Z,5.93
2022-11-15T17:43:05.865Z,5.90
2022-11-15T17:45:35.313Z,5.17
2022-11-15T17:48:03.751Z,4.80
2022-11-15T17:50:31.831Z,6.20
2022-11-15T17:53:00.466Z,5.53
2022-11-15T17:55:28.470Z,5.90
2022-11-15T17:57:56.435Z,7.20
2022-11-15T18:00:24.719Z,6.60
2022-11-15T18:02:54.085Z,6.23
2022-11-15T18:05:22.132Z,6.47
2022-11-15T18:07:50.126Z,6.07
2022-11-15T18:10:18.304Z,6.90
2022-11-15T18:12:46.279Z,6.40
2022-11-15T18:15:14.278Z,7.37
2022-11-15T18:17:42.279Z,6.90
2022-11-15T18:20:12.843Z,7.87
2022-11-15T18:22:40.885Z,7.63
2022-11-15T18:25:09.435Z,7.90
2022-11-15T18:27:38.258Z,7.40
2022-11-15T18:30:07.236Z,7.30
2022-11-15T18:32:35.352Z,7.60
2022-11-15T18:35:03.390Z,6.03
2022-11-15T18:37:33.298Z,7.03
2022-11-15T18:40:01.308Z,5.77
2022-11-15T18:42:32.960Z,6.80
2022-11-15T18:45:01.765Z,5.50
2022-11-15T18:47:31.597Z,6.50
2022-11-15T18:49:59.738Z,5.10
2022-11-15T18:52:27.785Z,5.60
2022-11-15T18:54:57.130Z,6.10
2022-11-15T18:57:25.104Z,5.70
2022-11-15T18:59:53.490Z,6.10
2022-11-15T19:02:21.545Z,5.87
2022-11-15T19:04:49.584Z,6.00
2022-11-15T19:07:17.643Z,6.17
2022-11-15T19:09:46.043Z,6.30
2022-11-15T19:12:15.417Z,7.20
2022-11-15T19:14:43.709Z,6.33
2022-11-15T19:17:11.799Z,5.87
2022-11-15T19:19:39.818Z,6.73
2022-11-15T19:22:07.829Z,6.10
2022-11-15T19:24:35.828Z,6.47
2022-11-15T19:27:03.800Z,6.87
2022-11-15T19:29:33.212Z,6.17
2022-11-15T19:32:02.149Z,7.20
2022-11-15T19:34:30.175Z,7.17
2022-11-15T19:36:58.188Z,7.03
2022-11-15T19:39:26.271Z,8.13
2022-11-15T19:41:54.340Z,7.27
2022-11-15T19:44:22.828Z,6.70
2022-11-15T19:46:52.244Z,6.93
2022-11-15T19:49:21.538Z,7.23
2022-11-15T19:51:49.524Z,6.97
2022-11-15T19:54:17.593Z,7.63
2022-11-15T19:56:45.743Z,7.67
2022-11-15T19:59:14.259Z,7.03
2022-11-15T20:01:42.618Z,7.00
2022-11-15T20:04:12.082Z,7.80
2022-11-15T20:06:41.930Z,6.80
2022-11-15T20:09:12.719Z,6.80
2022-11-15T20:11:40.750Z,6.63
2022-11-15T20:14:10.841Z,6.90
2022-11-15T20:16:39.079Z,6.87
2022-11-15T20:19:07.398Z,6.03
2022-11-15T20:21:37.139Z,6.23
2022-11-15T20:24:05.808Z,6.87
2022-11-15T20:26:33.782Z,7.27
2022-11-15T20:29:03.242Z,8.23
2022-11-15T20:31:31.760Z,7.90
2022-11-15T20:34:00.112Z,8.40
2022-11-15T20:36:28.592Z,7.87
2022-11-15T20:39:00.226Z,8.63
2022-11-15T20:41:28.621Z,8.30
2022-11-15T20:43:56.656Z,9.10
2022-11-15T20:46:24.689Z,9.23
2022-11-15T20:48:52.669Z,8.30
2022-11-15T20:51:21.397Z,7.83
2022-11-15T20:53:49.551Z,7.83
2022-11-15T20:56:20.745Z,7.83
2022-11-15T20:58:50.339Z,8.50
2022-11-15T21:01:23.203Z,8.40
2022-11-15T21:03:51.968Z,8.17
2022-11-15T21:06:21.003Z,8.17
2022-11-15T21:09:06.874Z,8.43
2022-11-15T21:11:53.991Z,8.40
2022-11-15T21:14:22.184Z,8.97
2022-11-15T21:16:50.411Z,9.13
2022-11-15T21:19:22.611Z,9.10
2022-11-15T21:21:53.790Z,8.70
2022-11-15T21:24:23.504Z,9.63
2022-11-15T21:26:53.384Z,8.93
2022-11-15T21:29:21.723Z,9.10
2022-11-15T21:31:51.417Z,9.07
2022-11-15T21:34:20.220Z,8.80
2022-11-15T21:36:48.345Z,9.23
2022-11-15T21:39:16.289Z,10.07
2022-11-15T21:41:44.271Z,10.03
2022-11-15T21:44:13.594Z,10.57
2022-11-15T21:46:41.756Z,10.43
2022-11-15T21:49:10.095Z,10.50
2022-11-15T21:51:38.544Z,9.87
2022-11-15T21:54:06.681Z,10.03
2022-11-15T21:56:34.805Z,9.80
2022-11-15T21:59:02.998Z,10.20
2022-11-15T22:01:49.790Z,10.03
2022-11-15T22:04:18.215Z,9.90
2022-11-15T22:06:46.251Z,10.03
2022-11-15T22:09:14.261Z,9.33
2022-11-15T22:11:42.337Z,9.90
2022-11-15T22:14:10.375Z,10.77
2022-11-15T22:16:39.765Z,9.60
2022-11-15T22:19:07.927Z,10.37
2022-11-15T22:21:37.971Z,10.03
2022-11-15T22:24:06.980Z,9.53
2022-11-15T22:26:35.121Z,10.30
2022-11-15T22:29:03.444Z,9.27
2022-11-15T22:31:31.580Z,10.60
2022-11-15T22:34:01.086Z,10.67
2022-11-15T22:36:42.519Z,9.93
2022-11-15T22:39:17.669Z,9.87
2022-11-15T22:41:45.792Z,10.67
2022-11-15T22:44:13.955Z,10.30
2022-11-15T22:46:42.062Z,9.40
2022-11-15T22:49:11.577Z,9.90
2022-11-15T22:51:40.650Z,10.83
2022-11-15T22:54:08.879Z,9.73
2022-11-15T22:56:37.164Z,10.57
2022-11-15T22:59:05.245Z,10.40
2022-11-15T23:01:33.398Z,10.57
2022-11-15T23:04:01.541Z,10.70
2022-11-15T23:06:31.127Z,9.87
2022-11-15T23:08:59.230Z,9.87
2022-11-15T23:11:44.788Z,9.77
2022-11-15T23:14:12.892Z,9.43
2022-11-15T23:16:41.061Z,9.33
2022-11-15T23:19:10.603Z,9.23
2022-11-15T23:21:57.987Z,9.63
2022-11-15T23:24:26.524Z,9.47
2022-11-15T23:26:56.582Z,9.83
2022-11-15T23:29:26.367Z,9.33
2022-11-15T23:32:12.913Z,9.77
2022-11-15T23:34:42.877Z,8.97
2022-11-15T23:37:13.898Z,8.37
2022-11-15T23:39:42.101Z,7.97
2022-11-15T23:42:19.468Z,8.37
2022-11-15T23:44:50.044Z,7.47
2022-11-15T23:47:18.476Z,7.77
2022-11-15T23:49:46.658Z,8.60
2022-11-15T23:52:16.653Z,8.57
2022-11-15T23:54:44.968Z,8.93
2022-11-15T23:57:13.352Z,8.60
2022-11-15T23:59:43.364Z,9.57
